Time;durP1;ratioP1;P1;durP2;ratioP2;P2;SDS_P1;SDS_P2;PMS_P1;PMS_P2;Temp;Humidity;BMP_temperature;BMP_pressure;BME280_temperature;BME280_humidity;BME280_pressure;Samples;Min_cycle;Max_cycle;Signal;HPM_P1;HPM_P2
2023/06/02 00:01:01;;;;;;;5.80;3.60;;;;;;;12.70;67.66;100959.03;5047469;28;20199;-69
2023/06/02 00:03:30;;;;;;;6.50;4.00;;;;;;;12.65;67.49;100953.94;5047845;28;20585;-70
2023/06/02 00:05:59;;;;;;;5.43;3.40;;;;;;;12.60;67.94;100956.81;5050072;28;20196;-69
2023/06/02 00:08:25;;;;;;;7.33;3.40;;;;;;;12.56;67.71;100959.34;5040863;28;20215;-69
2023/06/02 00:10:52;;;;;;;6.87;3.23;;;;;;;12.53;68.09;100961.88;5048027;28;20214;-69
2023/06/02 00:13:19;;;;;;;4.87;3.27;;;;;;;12.49;67.41;100963.63;5059601;28;20234;-69
2023/06/02 00:15:46;;;;;;;5.83;3.40;;;;;;;12.44;67.72;100956.69;5065047;28;20677;-69
2023/06/02 00:18:13;;;;;;;7.30;3.57;;;;;;;12.42;67.72;100966.06;5052318;28;20199;-69
2023/06/02 00:20:41;;;;;;;6.97;3.97;;;;;;;12.38;68.67;100965.16;5053936;28;20198;-69
2023/06/02 00:23:08;;;;;;;5.33;3.00;;;;;;;12.34;69.01;100965.06;5037065;28;21293;-69
2023/06/02 00:25:35;;;;;;;4.20;3.03;;;;;;;12.30;69.33;100976.59;5051708;28;20206;-70
2023/06/02 00:28:02;;;;;;;5.77;3.30;;;;;;;12.26;69.41;100968.53;5054835;28;20227;-69
2023/06/02 00:30:28;;;;;;;8.47;2.93;;;;;;;12.21;69.28;100968.00;5052732;28;20577;-70
2023/06/02 00:32:55;;;;;;;5.20;3.33;;;;;;;12.18;69.43;100966.78;5053366;28;20231;-69
2023/06/02 00:35:23;;;;;;;5.30;3.57;;;;;;;12.14;69.96;100963.22;5035141;28;20222;-69
2023/06/02 00:37:49;;;;;;;6.80;3.23;;;;;;;12.10;69.69;100962.31;5039574;28;20191;-69
2023/06/02 00:40:16;;;;;;;5.40;3.20;;;;;;;12.07;69.93;100959.56;5044306;28;20195;-69
2023/06/02 00:42:42;;;;;;;7.20;3.50;;;;;;;12.04;69.97;100962.84;5058869;28;20314;-69
2023/06/02 00:45:09;;;;;;;5.20;3.33;;;;;;;12.01;70.44;100963.50;5046385;28;20203;-69
2023/06/02 00:47:37;;;;;;;10.10;3.93;;;;;;;12.02;71.07;100968.47;5036594;28;20213;-69
2023/06/02 00:50:04;;;;;;;8.53;3.33;;;;;;;12.00;70.48;100965.38;5035225;28;20220;-69
2023/06/02 00:52:34;;;;;;;10.53;3.80;;;;;;;11.99;70.95;100966.47;5050856;28;20698;-70
2023/06/02 00:55:02;;;;;;;7.37;3.87;;;;;;;12.00;71.18;100975.94;5045999;28;20230;-69
2023/06/02 00:57:28;;;;;;;9.60;3.03;;;;;;;12.01;70.70;100972.19;5039164;28;20204;-70
2023/06/02 00:59:56;;;;;;;5.33;3.10;;;;;;;12.02;70.63;100973.00;5048790;28;20219;-70
2023/06/02 01:02:23;;;;;;;5.00;3.30;;;;;;;12.02;70.69;100973.00;5053839;28;20830;-69
2023/06/02 01:04:50;;;;;;;4.40;3.30;;;;;;;12.05;70.83;100972.31;5049973;28;20192;-69
2023/06/02 01:07:23;;;;;;;3.83;2.70;;;;;;;12.07;70.46;100975.44;5033961;28;20730;-69
2023/06/02 01:09:51;;;;;;;7.47;3.20;;;;;;;12.12;71.28;100972.59;5029598;28;20212;-69
2023/06/02 01:12:18;;;;;;;8.40;3.70;;;;;;;12.13;70.95;100974.13;5044770;28;20219;-70
2023/06/02 01:14:45;;;;;;;8.23;3.30;;;;;;;12.16;70.80;100974.25;5057921;28;20213;-69
2023/06/02 01:17:13;;;;;;;5.33;3.30;;;;;;;12.20;71.05;100974.38;5037696;28;20195;-69
2023/06/02 01:19:40;;;;;;;9.50;3.33;;;;;;;12.25;70.58;100969.66;5039565;28;20204;-70
2023/06/02 01:22:10;;;;;;;4.70;2.93;;;;;;;12.28;71.10;100976.94;5051378;28;20314;-69
2023/06/02 01:24:39;;;;;;;6.97;3.50;;;;;;;12.30;70.51;100974.75;5041149;28;20750;-69
2023/06/02 01:27:07;;;;;;;5.63;3.03;;;;;;;12.33;70.27;100973.31;5035206;28;20204;-69
2023/06/02 01:29:35;;;;;;;5.53;2.93;;;;;;;12.37;70.41;100972.31;5039521;28;20223;-69
2023/06/02 01:32:06;;;;;;;5.30;2.93;;;;;;;12.38;70.00;100978.41;5037067;28;20277;-69
2023/06/02 01:34:38;;;;;;;9.90;3.73;;;;;;;12.41;70.04;100981.16;5053022;28;20200;-70
2023/06/02 01:37:06;;;;;;;5.10;3.70;;;;;;;12.47;71.23;100987.03;5040223;28;20200;-69
2023/06/02 01:39:33;;;;;;;7.37;3.30;;;;;;;12.49;70.82;100985.63;5068691;28;20200;-69
2023/06/02 01:42:02;;;;;;;5.80;3.13;;;;;;;12.53;70.15;100978.53;5035788;28;20226;-69
2023/06/02 01:44:31;;;;;;;6.20;3.50;;;;;;;12.55;69.61;100984.31;5068746;28;20192;-69
2023/06/02 01:46:58;;;;;;;6.70;3.30;;;;;;;12.56;69.63;100991.13;5055961;28;20196;-69
2023/06/02 01:49:25;;;;;;;7.07;3.10;;;;;;;12.57;70.20;100984.72;5039418;28;20274;-70
2023/06/02 01:51:54;;;;;;;5.23;3.23;;;;;;;12.59;69.96;100981.75;5059767;28;20569;-70
2023/06/02 01:54:21;;;;;;;6.10;3.40;;;;;;;12.60;70.37;100985.94;5033523;28;20218;-69
2023/06/02 01:56:48;;;;;;;6.77;3.13;;;;;;;12.60;70.08;100988.59;5059245;28;20209;-69
2023/06/02 01:59:17;;;;;;;5.80;3.10;;;;;;;12.57;69.56;100987.38;5036538;28;20199;-70
2023/06/02 02:01:44;;;;;;;7.30;3.47;;;;;;;12.54;69.39;100990.72;5071709;28;20228;-69
2023/06/02 02:04:11;;;;;;;8.33;3.93;;;;;;;12.52;69.43;100995.53;5047671;28;20203;-69
2023/06/02 02:06:39;;;;;;;6.53;3.30;;;;;;;12.50;69.73;100997.75;5048228;28;20585;-69
2023/06/02 02:09:07;;;;;;;4.97;3.13;;;;;;;12.48;69.83;101002.59;5062458;28;20211;-69
2023/06/02 02:11:34;;;;;;;8.73;3.47;;;;;;;12.47;70.54;101001.03;5058155;28;20233;-69
2023/06/02 02:14:04;;;;;;;5.20;3.20;;;;;;;12.48;70.21;100996.53;5058417;28;20203;-69
2023/06/02 02:16:32;;;;;;;5.87;3.13;;;;;;;12.44;69.70;101004.38;5049979;28;20262;-69
2023/06/02 02:18:58;;;;;;;9.63;3.60;;;;;;;12.42;69.33;100998.59;5039335;28;20200;-70
2023/06/02 02:21:25;;;;;;;5.57;3.50;;;;;;;12.43;69.55;101004.69;5037594;28;20252;-69
2023/06/02 02:23:52;;;;;;;6.73;3.43;;;;;;;12.42;69.55;101001.25;5054032;28;20221;-69
2023/06/02 02:26:19;;;;;;;7.77;5.17;;;;;;;12.43;70.22;101002.03;5034425;28;20208;-70
2023/06/02 02:28:45;;;;;;;5.17;3.07;;;;;;;12.42;69.06;101001.25;5050350;28;20250;-69
2023/06/02 02:31:12;;;;;;;5.93;3.60;;;;;;;12.43;69.30;100999.38;5052787;28;20241;-69
2023/06/02 02:33:40;;;;;;;7.83;3.47;;;;;;;12.41;68.37;100999.72;5081227;28;20211;-69
2023/06/02 02:36:08;;;;;;;9.80;3.57;;;;;;;12.41;69.30;100996.28;5020751;28;20196;-69
2023/06/02 02:38:36;;;;;;;12.53;5.73;;;;;;;12.40;69.08;101007.97;5014155;28;20212;-69
2023/06/02 02:41:02;;;;;;;6.10;3.23;;;;;;;12.41;69.28;101004.22;5009821;28;20290;-69
2023/06/02 02:43:29;;;;;;;5.23;3.30;;;;;;;12.43;69.99;101002.78;5030678;28;20220;-69
2023/06/02 02:45:55;;;;;;;6.90;3.37;;;;;;;12.45;70.31;100997.16;5028677;28;20212;-70
2023/06/02 02:48:21;;;;;;;7.50;3.10;;;;;;;12.42;68.88;101003.91;5033643;28;20235;-69
2023/06/02 02:50:50;;;;;;;7.83;3.47;;;;;;;12.43;69.08;101005.44;5031570;28;20218;-69
2023/06/02 02:53:16;;;;;;;9.10;3.20;;;;;;;12.45;69.68;101005.13;5043652;28;20244;-69
2023/06/02 02:55:44;;;;;;;8.23;2.87;;;;;;;12.43;69.12;100999.38;5022991;28;20209;-69
2023/06/02 02:58:11;;;;;;;5.20;3.00;;;;;;;12.42;68.92;101005.78;5015089;28;20215;-69
2023/06/02 03:00:39;;;;;;;7.30;3.10;;;;;;;12.42;67.70;101011.09;5025883;28;20200;-69
2023/06/02 03:03:05;;;;;;;7.50;2.97;;;;;;;12.41;68.33;101014.81;5016820;28;20223;-69
2023/06/02 03:05:34;;;;;;;7.43;2.90;;;;;;;12.40;69.09;101014.06;5029628;28;20224;-70
2023/06/02 03:08:05;;;;;;;9.30;3.20;;;;;;;12.40;67.50;101016.69;5023569;28;20279;-69
2023/06/02 03:10:31;;;;;;;9.27;3.20;;;;;;;12.41;67.75;101010.31;5038787;28;20533;-69
2023/06/02 03:12:57;;;;;;;6.17;2.83;;;;;;;12.39;68.75;101012.50;5031116;28;20306;-70
2023/06/02 03:15:24;;;;;;;9.33;3.07;;;;;;;12.38;69.11;101024.19;5028856;28;20291;-70
2023/06/02 03:17:51;;;;;;;8.47;3.43;;;;;;;12.36;68.47;101026.41;5036926;28;20192;-69
2023/06/02 03:20:18;;;;;;;12.13;3.10;;;;;;;12.40;69.02;101023.88;5035939;28;20203;-69
2023/06/02 03:22:49;;;;;;;7.47;3.00;;;;;;;12.37;69.13;101025.28;5025530;28;20598;-70
2023/06/02 03:25:20;;;;;;;8.33;3.30;;;;;;;12.37;68.12;101033.22;5046336;28;20189;-69
2023/06/02 03:27:48;;;;;;;7.50;3.30;;;;;;;12.35;69.13;101026.72;5019751;28;20195;-70
2023/06/02 03:30:14;;;;;;;8.70;3.60;;;;;;;12.34;67.72;101031.25;5027200;28;20220;-69
2023/06/02 03:32:41;;;;;;;7.90;3.40;;;;;;;12.35;68.20;101032.00;5013844;28;20320;-69
2023/06/02 03:35:09;;;;;;;9.37;2.83;;;;;;;12.32;68.99;101040.63;5058136;28;20709;-69
2023/06/02 03:37:39;;;;;;;4.43;3.17;;;;;;;12.33;68.55;101044.81;5038500;28;20568;-69
2023/06/02 03:40:07;;;;;;;8.70;3.27;;;;;;;12.33;68.55;101047.47;5034029;28;20222;-69
2023/06/02 03:42:35;;;;;;;7.13;2.77;;;;;;;12.33;68.78;101056.19;5037641;28;20590;-69
2023/06/02 03:45:05;;;;;;;9.20;3.70;;;;;;;12.33;68.80;101050.91;5033314;28;20199;-70
2023/06/02 03:47:32;;;;;;;6.43;3.13;;;;;;;12.33;67.87;101050.09;5041486;28;20204;-70
2023/06/02 03:49:58;;;;;;;8.03;3.20;;;;;;;12.31;68.89;101050.44;5057072;28;20219;-69
2023/06/02 03:52:25;;;;;;;9.43;3.67;;;;;;;12.31;68.81;101053.06;5028952;28;20567;-69
2023/06/02 03:54:52;;;;;;;8.83;2.90;;;;;;;12.33;69.59;101052.75;5035528;28;20291;-70
2023/06/02 03:57:19;;;;;;;6.93;3.00;;;;;;;12.34;69.82;101059.59;5040628;28;20756;-69
2023/06/02 03:59:47;;;;;;;8.10;3.40;;;;;;;12.37;68.73;101058.97;5033703;28;20207;-69
2023/06/02 04:02:13;;;;;;;6.80;3.07;;;;;;;12.40;69.45;101063.59;5037563;28;20227;-69
2023/06/02 04:04:41;;;;;;;8.50;4.10;;;;;;;12.46;70.37;101070.22;5037625;28;20192;-69
2023/06/02 04:07:07;;;;;;;6.53;2.80;;;;;;;12.48;68.87;101078.66;5035888;28;20208;-69
2023/06/02 04:09:35;;;;;;;9.50;3.40;;;;;;;12.51;69.06;101075.31;5038030;28;20217;-70
2023/06/02 04:12:02;;;;;;;7.37;3.17;;;;;;;12.58;69.13;101078.25;5035008;28;20219;-69
2023/06/02 04:14:31;;;;;;;9.60;3.17;;;;;;;12.61;68.83;101085.53;5044198;28;20695;-70
2023/06/02 04:16:59;;;;;;;6.30;2.87;;;;;;;12.64;68.47;101088.31;5039790;28;20673;-69
2023/06/02 04:19:28;;;;;;;8.97;3.20;;;;;;;12.67;68.47;101077.03;5036441;28;20194;-70
2023/06/02 04:21:55;;;;;;;6.57;2.87;;;;;;;12.71;68.93;101085.13;5054346;28;20224;-69
2023/06/02 04:24:21;;;;;;;9.43;3.20;;;;;;;12.72;68.94;101084.78;5035977;28;20228;-69
2023/06/02 04:26:47;;;;;;;5.97;3.03;;;;;;;12.76;67.76;101084.91;5017697;28;20226;-69
2023/06/02 04:29:16;;;;;;;7.30;3.00;;;;;;;12.80;67.87;101085.81;5043277;28;20209;-69
2023/06/02 04:31:45;;;;;;;6.53;2.87;;;;;;;12.82;68.03;101086.25;5026792;28;20226;-69
2023/06/02 04:34:17;;;;;;;7.47;2.90;;;;;;;12.82;67.17;101086.25;5031631;28;20293;-69
2023/06/02 04:36:44;;;;;;;10.13;2.80;;;;;;;12.84;67.33;101086.72;5055224;28;20267;-69
2023/06/02 04:39:12;;;;;;;6.50;2.57;;;;;;;12.85;67.71;101097.00;5042151;28;20649;-69
2023/06/02 04:41:39;;;;;;;7.33;3.33;;;;;;;12.87;67.24;101097.44;5029664;28;20219;-70
2023/06/02 04:44:05;;;;;;;9.73;2.93;;;;;;;12.89;67.34;101097.09;5046153;28;20200;-70
2023/06/02 04:46:32;;;;;;;10.33;3.00;;;;;;;12.93;66.93;101100.66;5035382;28;20558;-69
2023/06/02 04:48:59;;;;;;;9.57;3.13;;;;;;;12.94;67.29;101105.59;5035984;28;20217;-69
2023/06/02 04:51:28;;;;;;;8.53;2.90;;;;;;;12.91;66.73;101100.97;5031715;28;20212;-70
2023/06/02 04:53:55;;;;;;;6.60;2.80;;;;;;;12.95;66.65;101101.09;5043268;28;20286;-70
2023/06/02 04:56:23;;;;;;;17.73;4.37;;;;;;;12.97;66.85;101102.34;5040575;28;20200;-70
2023/06/02 04:58:50;;;;;;;8.13;2.97;;;;;;;13.02;66.38;101104.78;5039226;28;20671;-70
2023/06/02 05:01:17;;;;;;;6.90;2.80;;;;;;;13.08;66.60;101114.06;5059387;28;20188;-69
2023/06/02 05:03:44;;;;;;;5.93;2.50;;;;;;;13.13;67.17;101111.22;5044537;28;20531;-69
2023/06/02 05:06:10;;;;;;;10.67;2.90;;;;;;;13.22;66.83;101108.47;5058278;28;20275;-70
2023/06/02 05:08:38;;;;;;;9.93;3.10;;;;;;;13.27;65.61;101116.19;5039641;28;20248;-69
2023/06/02 05:11:06;;;;;;;6.67;3.30;;;;;;;13.25;65.72;101107.81;5039249;28;20301;-70
2023/06/02 05:13:33;;;;;;;8.40;3.13;;;;;;;13.31;66.12;101114.44;5034499;28;20269;-69
2023/06/02 05:16:00;;;;;;;9.10;3.23;;;;;;;13.41;66.30;101108.69;5052536;28;20643;-69
2023/06/02 05:18:27;;;;;;;7.77;2.93;;;;;;;13.47;66.10;101124.09;5039652;28;20681;-70
2023/06/02 05:20:55;;;;;;;13.57;2.43;;;;;;;13.54;65.74;101113.69;5033488;28;20228;-70
2023/06/02 05:23:22;;;;;;;9.47;2.50;;;;;;;13.59;64.83;101118.78;5040158;28;20228;-70
2023/06/02 05:25:50;;;;;;;5.80;2.33;;;;;;;13.67;64.82;101123.16;5046821;28;20201;-70
2023/06/02 05:28:16;;;;;;;8.90;2.80;;;;;;;13.69;65.00;101113.03;5040309;28;20276;-70
2023/06/02 05:30:44;;;;;;;15.57;3.70;;;;;;;13.74;64.76;101123.41;5038806;28;20274;-69
2023/06/02 05:33:11;;;;;;;9.10;2.57;;;;;;;13.84;65.22;101116.88;5047404;28;20457;-69
2023/06/02 05:35:38;;;;;;;8.43;2.23;;;;;;;13.92;64.82;101110.69;5040857;28;20204;-70
2023/06/02 05:38:05;;;;;;;13.57;2.87;;;;;;;13.99;64.61;101122.28;5057340;28;20561;-69
2023/06/02 05:40:34;;;;;;;10.93;2.90;;;;;;;14.06;64.28;101124.34;5028534;28;20306;-70
2023/06/02 05:43:01;;;;;;;13.83;2.97;;;;;;;14.11;64.08;101129.44;5042764;28;20222;-70
2023/06/02 05:45:29;;;;;;;11.27;2.83;;;;;;;14.17;64.48;101131.53;5035925;28;20690;-70
2023/06/02 05:47:55;;;;;;;13.47;5.07;;;;;;;14.24;64.28;101133.66;5040491;28;20209;-70
2023/06/02 05:50:24;;;;;;;9.33;2.90;;;;;;;14.29;64.03;101136.06;5044268;28;20234;-70
2023/06/02 05:52:50;;;;;;;12.47;3.93;;;;;;;14.35;63.51;101137.38;5051740;28;20293;-70
2023/06/02 05:55:17;;;;;;;10.77;2.50;;;;;;;14.45;63.70;101142.22;5041517;28;20195;-70
2023/06/02 05:57:44;;;;;;;8.40;2.70;;;;;;;14.54;63.15;101126.94;5033425;28;20202;-70
2023/06/02 06:00:15;;;;;;;11.57;2.93;;;;;;;14.56;61.97;101122.81;5041968;28;20202;-70
2023/06/02 06:02:41;;;;;;;12.00;3.10;;;;;;;14.62;62.48;101112.69;5055450;28;20318;-70
2023/06/02 06:05:13;;;;;;;5.80;2.60;;;;;;;14.71;62.93;101135.38;5044559;28;20209;-70
2023/06/02 06:07:39;;;;;;;9.10;3.07;;;;;;;14.79;63.25;101128.34;5036294;28;20196;-69
2023/06/02 06:10:07;;;;;;;11.27;3.10;;;;;;;14.83;62.83;101126.56;5045898;28;20196;-70
2023/06/02 06:12:33;;;;;;;7.33;2.73;;;;;;;14.89;62.28;101133.16;5036203;28;20261;-70
2023/06/02 06:15:01;;;;;;;5.17;2.60;;;;;;;14.96;61.84;101128.06;5059996;28;20242;-70
2023/06/02 06:17:29;;;;;;;12.77;3.23;;;;;;;15.03;61.57;101133.53;5040240;28;20234;-70
2023/06/02 06:19:55;;;;;;;11.37;2.87;;;;;;;15.10;62.34;101131.84;5034998;28;20199;-70
2023/06/02 06:22:22;;;;;;;10.60;2.93;;;;;;;15.17;61.89;101129.34;5040101;28;20268;-70
2023/06/02 06:24:48;;;;;;;8.93;2.67;;;;;;;15.22;61.59;101133.66;5030925;28;20207;-70
2023/06/02 06:27:15;;;;;;;6.73;2.57;;;;;;;15.25;60.62;101135.63;5056224;28;20545;-70
2023/06/02 06:29:42;;;;;;;6.87;2.60;;;;;;;15.33;60.68;101134.72;5034650;28;20214;-70
2023/06/02 06:32:08;;;;;;;9.27;2.97;;;;;;;15.38;61.36;101135.22;5055537;28;20219;-70
2023/06/02 06:34:36;;;;;;;10.47;2.50;;;;;;;15.43;61.12;101131.56;5041033;28;20307;-70
2023/06/02 06:37:03;;;;;;;13.40;3.40;;;;;;;15.47;60.94;101135.84;5040213;28;20237;-70
2023/06/02 06:39:29;;;;;;;10.30;2.77;;;;;;;15.55;60.69;101142.88;5034821;28;20195;-70
2023/06/02 06:41:56;;;;;;;10.33;3.13;;;;;;;15.63;60.51;101143.81;5036160;28;20219;-70
2023/06/02 06:44:42;;;;;;;13.30;2.87;;;;;;;15.70;59.68;101155.41;5052884;28;20557;-70
2023/06/02 06:47:10;;;;;;;6.73;2.50;;;;;;;15.75;59.80;101144.50;5028323;28;20200;-70
2023/06/02 06:49:37;;;;;;;7.70;2.77;;;;;;;15.81;60.89;101140.44;5039511;28;20276;-70
2023/06/02 06:52:04;;;;;;;8.73;2.57;;;;;;;15.86;59.40;101150.06;5051446;28;20227;-70
2023/06/02 06:54:31;;;;;;;10.40;2.80;;;;;;;15.91;59.11;101155.09;5051448;28;20205;-70
2023/06/02 06:56:57;;;;;;;11.17;3.40;;;;;;;15.98;59.22;101161.38;5054268;28;20204;-70
2023/06/02 06:59:23;;;;;;;9.07;2.40;;;;;;;16.05;58.81;101163.44;5049317;28;20196;-70
2023/06/02 07:01:50;;;;;;;10.87;2.90;;;;;;;16.13;59.51;101163.22;5056961;28;20230;-70
2023/06/02 07:04:17;;;;;;;9.33;2.83;;;;;;;16.19;59.17;101164.50;5050289;28;20200;-70
2023/06/02 07:06:45;;;;;;;10.83;2.90;;;;;;;16.28;59.16;101170.41;5050085;28;20202;-70
2023/06/02 07:09:12;;;;;;;9.43;2.43;;;;;;;16.37;58.46;101159.53;5050785;28;20578;-70
2023/06/02 07:11:38;;;;;;;5.60;2.33;;;;;;;16.44;58.56;101171.16;5050342;28;20240;-70
2023/06/02 07:14:05;;;;;;;10.37;2.60;;;;;;;16.53;58.63;101170.94;5052555;28;20207;-70
2023/06/02 07:16:31;;;;;;;8.70;2.37;;;;;;;16.58;57.20;101168.00;5056698;28;20211;-70
2023/06/02 07:18:58;;;;;;;10.83;2.20;;;;;;;16.64;57.47;101169.25;5048612;28;20742;-70
2023/06/02 07:21:25;;;;;;;11.77;2.57;;;;;;;16.72;57.19;101170.94;5055233;28;20560;-69
2023/06/02 07:23:53;;;;;;;13.07;2.70;;;;;;;16.77;56.66;101171.44;5050728;28;20196;-70
2023/06/02 07:26:20;;;;;;;11.67;2.40;;;;;;;16.80;56.53;101180.63;5049184;28;20224;-70
2023/06/02 07:28:46;;;;;;;8.57;2.17;;;;;;;16.85;56.38;101178.44;5053697;28;20752;-70
2023/06/02 07:31:13;;;;;;;6.93;1.90;;;;;;;16.94;56.27;101186.22;5049598;28;20225;-69
2023/06/02 07:33:39;;;;;;;7.60;2.40;;;;;;;17.03;55.61;101182.22;5047430;28;20616;-70
2023/06/02 07:36:06;;;;;;;8.40;2.63;;;;;;;17.12;55.74;101180.09;5049943;28;20676;-69
2023/06/02 07:38:32;;;;;;;9.30;2.23;;;;;;;17.18;55.00;101185.94;5049807;28;20210;-70
2023/06/02 07:41:00;;;;;;;10.20;3.57;;;;;;;17.21;55.37;101179.84;5048914;28;20540;-70
2023/06/02 07:43:27;;;;;;;10.57;2.50;;;;;;;17.32;56.24;101183.47;5058384;28;20301;-69
2023/06/02 07:45:53;;;;;;;11.13;2.30;;;;;;;17.39;54.80;101187.06;5030403;28;20191;-70
2023/06/02 07:48:19;;;;;;;8.13;2.73;;;;;;;17.47;55.14;101180.75;5059859;28;20206;-70
2023/06/02 07:50:49;;;;;;;12.03;2.47;;;;;;;17.63;55.49;101184.06;5049374;28;20243;-70
2023/06/02 07:53:15;;;;;;;6.37;2.50;;;;;;;17.71;53.90;101176.94;5051878;28;20422;-70
2023/06/02 07:55:41;;;;;;;8.83;3.50;;;;;;;17.86;54.61;101184.03;5050307;28;20195;-71
2023/06/02 07:58:10;;;;;;;9.90;2.77;;;;;;;18.02;54.28;101184.66;5052175;28;20562;-70
2023/06/02 08:00:38;;;;;;;13.50;2.47;;;;;;;18.16;53.40;101190.19;5036939;28;20199;-70
2023/06/02 08:03:05;;;;;;;9.93;2.40;;;;;;;18.27;53.12;101191.13;5053674;28;20276;-70
2023/06/02 08:05:31;;;;;;;9.60;2.43;;;;;;;18.34;53.98;101185.88;5048230;28;20191;-70
2023/06/02 08:07:57;;;;;;;9.80;2.10;;;;;;;18.38;53.50;101189.38;5049363;28;20203;-70
2023/06/02 08:10:24;;;;;;;8.23;2.47;;;;;;;18.44;52.48;101191.38;5050952;28;20195;-71
2023/06/02 08:12:50;;;;;;;6.57;2.00;;;;;;;18.50;52.22;101189.13;5046130;28;20674;-70
2023/06/02 08:15:18;;;;;;;4.57;1.90;;;;;;;18.52;51.65;101193.00;5033631;28;20203;-70
2023/06/02 08:17:45;;;;;;;9.53;2.20;;;;;;;18.47;51.94;101195.97;5051053;28;20203;-70
2023/06/02 08:20:11;;;;;;;7.73;2.07;;;;;;;18.43;52.11;101181.78;5049545;28;20288;-70
2023/06/02 08:22:39;;;;;;;6.07;2.53;;;;;;;18.48;51.60;101183.38;5057838;28;20221;-70
2023/06/02 08:25:07;;;;;;;9.60;2.70;;;;;;;18.51;51.08;101182.66;5036885;28;20206;-70
2023/06/02 08:27:33;;;;;;;6.83;2.40;;;;;;;18.53;51.31;101181.16;5035592;28;20725;-70
2023/06/02 08:30:00;;;;;;;6.77;2.03;;;;;;;18.52;51.23;101193.00;5053163;28;20192;-70
2023/06/02 08:32:28;;;;;;;7.67;2.43;;;;;;;18.53;51.07;101186.50;5052206;28;20219;-70
2023/06/02 08:34:56;;;;;;;6.67;2.20;;;;;;;18.55;51.71;101189.59;5051821;28;20211;-70
2023/06/02 08:37:23;;;;;;;7.67;2.77;;;;;;;18.54;51.33;101189.97;5047860;28;20224;-70
2023/06/02 08:39:52;;;;;;;7.00;2.83;;;;;;;18.58;50.98;101191.53;5046562;28;20709;-70
2023/06/02 08:42:19;;;;;;;11.40;2.80;;;;;;;18.54;50.08;101195.31;5049478;28;20230;-70
2023/06/02 08:44:45;;;;;;;10.63;3.17;;;;;;;18.55;50.50;101196.84;5057272;28;20205;-70
2023/06/02 08:47:13;;;;;;;8.70;2.97;;;;;;;18.57;51.41;101200.69;5044422;28;20725;-70
2023/06/02 08:49:42;;;;;;;17.43;5.10;;;;;;;18.62;49.98;101199.63;5060446;28;20286;-70
2023/06/02 08:52:11;;;;;;;9.60;2.80;;;;;;;18.67;50.26;101201.97;5052019;28;20250;-70
2023/06/02 08:54:39;;;;;;;8.83;3.40;;;;;;;18.63;51.05;101201.91;5050442;28;21002;-70
2023/06/02 08:57:07;;;;;;;9.13;3.27;;;;;;;18.62;50.69;101202.31;5049914;28;20210;-69
2023/06/02 08:59:34;;;;;;;7.93;3.43;;;;;;;18.55;50.34;101200.31;5057104;28;20199;-70
2023/06/02 09:02:01;;;;;;;8.37;4.50;;;;;;;18.49;49.77;101215.13;5057165;28;20219;-70
2023/06/02 09:04:28;;;;;;;13.07;5.00;;;;;;;18.40;49.96;101211.94;5052810;28;20249;-70
2023/06/02 09:07:20;;;;;;;8.67;4.00;;;;;;;18.35;50.37;101212.25;5052304;28;20245;-70
2023/06/02 09:09:48;;;;;;;7.00;4.43;;;;;;;18.23;50.27;101211.66;5053504;28;20191;-70
2023/06/02 09:12:16;;;;;;;5.87;4.03;;;;;;;18.25;51.62;101215.53;5051287;28;20722;-69
2023/06/02 09:14:43;;;;;;;9.20;4.60;;;;;;;18.33;50.74;101209.19;5050401;28;20568;-70
2023/06/02 09:17:27;;;;;;;12.37;5.10;;;;;;;18.44;50.07;101201.28;5051726;28;20199;-70
2023/06/02 09:19:56;;;;;;;11.13;4.20;;;;;;;18.52;50.53;101218.97;5047505;28;20211;-70
2023/06/02 09:22:24;;;;;;;11.40;5.30;;;;;;;18.53;50.21;101215.91;5047442;28;20216;-70
2023/06/02 09:24:52;;;;;;;8.20;4.13;;;;;;;18.56;49.26;101222.44;5050736;28;20275;-70
2023/06/02 09:27:18;;;;;;;8.00;4.70;;;;;;;18.54;49.69;101224.72;5061555;28;20195;-70
2023/06/02 09:29:48;;;;;;;11.47;4.57;;;;;;;18.57;49.13;101232.78;5067538;28;20206;-70
2023/06/02 09:32:16;;;;;;;11.60;4.70;;;;;;;18.63;48.94;101230.59;5047342;28;20222;-69
2023/06/02 09:34:43;;;;;;;7.23;3.90;;;;;;;18.72;49.32;101223.81;5053923;28;20297;-69
2023/06/02 09:37:12;;;;;;;8.23;3.93;;;;;;;18.81;48.76;101218.19;5069048;28;20204;-69
2023/06/02 09:39:43;;;;;;;6.73;3.40;;;;;;;18.82;48.84;101231.19;5058729;28;20282;-69
2023/06/02 09:42:10;;;;;;;11.70;3.30;;;;;;;18.85;47.74;101227.03;5056073;28;20590;-69
2023/06/02 09:44:37;;;;;;;5.93;2.60;;;;;;;18.95;47.36;101229.84;5042285;28;20649;-69
2023/06/02 09:47:19;;;;;;;4.43;2.80;;;;;;;19.03;48.51;101233.34;5051393;28;20546;-69
2023/06/02 09:49:45;;;;;;;8.87;2.90;;;;;;;18.96;48.10;101230.59;5050057;28;20662;-69
2023/06/02 09:52:12;;;;;;;9.03;3.63;;;;;;;18.95;48.59;101231.72;5050563;28;20238;-69
2023/06/02 09:54:40;;;;;;;6.87;2.90;;;;;;;18.89;48.85;101233.19;5052611;28;20204;-69
2023/06/02 09:57:08;;;;;;;7.47;3.03;;;;;;;18.85;48.90;101241.19;5055697;28;20199;-69
2023/06/02 09:59:34;;;;;;;5.47;3.03;;;;;;;18.86;49.07;101236.59;5055260;28;20207;-69
2023/06/02 10:02:00;;;;;;;6.37;3.03;;;;;;;18.82;48.44;101241.91;5050025;28;20235;-69
2023/06/02 10:04:27;;;;;;;4.47;2.40;;;;;;;18.85;49.23;101241.19;5057189;28;20227;-69
2023/06/02 10:07:06;;;;;;;7.10;2.57;;;;;;;18.85;48.79;101245.75;5054695;28;20213;-69
2023/06/02 10:09:54;;;;;;;5.10;2.60;;;;;;;18.89;49.49;101257.28;5048505;28;20206;-70
2023/06/02 10:12:31;;;;;;;6.83;3.10;;;;;;;18.77;49.70;101262.84;5051742;28;20235;-69
2023/06/02 10:15:12;;;;;;;8.47;3.00;;;;;;;18.72;49.73;101252.47;5048466;28;20269;-69
2023/06/02 10:17:49;;;;;;;5.87;2.80;;;;;;;18.72;49.99;101249.78;5043807;28;20266;-69
2023/06/02 10:20:27;;;;;;;6.63;2.73;;;;;;;18.64;49.67;101251.63;5052663;28;20210;-69
2023/06/02 10:23:06;;;;;;;7.87;2.90;;;;;;;18.67;49.54;101264.25;5058549;28;20281;-69
2023/06/02 10:25:46;;;;;;;10.10;2.67;;;;;;;18.66;49.45;101267.28;5047570;28;20540;-70
2023/06/02 10:28:13;;;;;;;5.23;2.43;;;;;;;18.61;49.27;101263.03;5052132;28;20202;-70
2023/06/02 10:30:40;;;;;;;3.93;2.27;;;;;;;18.58;48.60;101260.31;5051816;28;20770;-69
2023/06/02 10:33:07;;;;;;;3.67;2.20;;;;;;;18.56;48.71;101252.66;5054025;28;20219;-69
2023/06/02 10:35:58;;;;;;;4.83;2.20;;;;;;;18.65;48.55;101244.34;5052961;28;20615;-69
2023/06/02 10:38:26;;;;;;;5.50;1.87;;;;;;;18.78;48.61;101241.09;5078199;28;20221;-69
2023/06/02 10:40:54;;;;;;;5.53;1.93;;;;;;;18.92;47.22;101251.97;5033628;28;20203;-69
2023/06/02 10:43:21;;;;;;;3.10;1.50;;;;;;;19.05;47.30;101249.81;5051598;28;20215;-69
2023/06/02 10:45:47;;;;;;;5.57;1.90;;;;;;;19.21;46.18;101248.50;5051232;28;20425;-69
2023/06/02 10:48:36;;;;;;;5.20;1.70;;;;;;;19.35;46.07;101240.59;5058321;28;20693;-69
2023/06/02 10:51:02;;;;;;;5.83;2.10;;;;;;;19.56;46.96;101246.16;5048344;28;20218;-69
2023/06/02 10:53:29;;;;;;;5.20;2.37;;;;;;;19.73;45.79;101242.88;5051048;28;20612;-70
2023/06/02 10:55:57;;;;;;;5.00;2.30;;;;;;;19.84;45.92;101249.09;5048828;28;20207;-69
2023/06/02 10:58:48;;;;;;;8.63;2.40;;;;;;;19.88;45.63;101252.53;5052911;28;20596;-69
2023/06/02 11:01:44;;;;;;;2.73;1.50;;;;;;;19.83;43.74;101252.91;5050933;28;20571;-69
2023/06/02 11:04:27;;;;;;;2.20;2.00;;;;;;;19.82;44.28;101255.97;5049186;28;20289;-69
2023/06/02 11:07:15;;;;;;;3.00;1.57;;;;;;;19.84;44.42;101245.63;5050382;28;20199;-69
2023/06/02 11:09:43;;;;;;;3.40;1.50;;;;;;;19.94;44.35;101248.41;5039895;28;20218;-69
2023/06/02 11:12:11;;;;;;;3.00;1.83;;;;;;;19.92;44.28;101248.00;5047361;28;20224;-69
2023/06/02 11:15:15;;;;;;;3.27;1.50;;;;;;;19.78;44.66;101252.47;5050237;28;20195;-69
2023/06/02 11:17:42;;;;;;;2.43;1.73;;;;;;;19.71;44.99;101253.19;5047483;28;20223;-69
2023/06/02 11:20:10;;;;;;;3.43;1.80;;;;;;;19.52;45.60;101258.78;5053522;28;20207;-69
2023/06/02 11:22:37;;;;;;;2.17;1.77;;;;;;;19.33;45.19;101256.28;5049518;28;20225;-69
2023/06/02 11:25:05;;;;;;;6.93;1.90;;;;;;;19.25;45.48;101260.00;5053810;28;20206;-69
2023/06/02 11:27:37;;;;;;;6.67;2.20;;;;;;;19.02;45.27;101253.22;5046000;28;20291;-69
2023/06/02 11:30:06;;;;;;;3.03;1.80;;;;;;;18.90;45.23;101254.25;5043751;28;20436;-68